sensor_id;sensor_type;location;lat;lon;timestamp;P1;durP1;ratioP1;P2;durP2;ratioP2
3712;SDS011;1872;51.406;6.856;2023-06-22T00:01:16;9.50;;;8.23;;
3712;SDS011;1872;51.406;6.856;2023-06-22T00:03:41;9.43;;;8.10;;
3712;SDS011;1872;51.406;6.856;2023-06-22T00:06:07;9.27;;;8.40;;
3712;SDS011;1872;51.406;6.856;2023-06-22T00:08:33;9.43;;;7.97;;
3712;SDS011;1872;51.406;6.856;2023-06-22T00:10:58;8.77;;;7.97;;
3712;SDS011;1872;51.406;6.856;2023-06-22T00:13:24;9.23;;;8.23;;
3712;SDS011;1872;51.406;6.856;2023-06-22T00:15:49;9.27;;;8.33;;
3712;SDS011;1872;51.406;6.856;2023-06-22T00:18:15;8.70;;;7.80;;
3712;SDS011;1872;51.406;6.856;2023-06-22T00:20:42;8.80;;;8.00;;
3712;SDS011;1872;51.406;6.856;2023-06-22T00:23:08;9.73;;;8.53;;
3712;SDS011;1872;51.406;6.856;2023-06-22T00:25:34;9.40;;;8.50;;
3712;SDS011;1872;51.406;6.856;2023-06-22T00:28:01;10.03;;;9.13;;
3712;SDS011;1872;51.406;6.856;2023-06-22T00:30:29;10.90;;;9.80;;
3712;SDS011;1872;51.406;6.856;2023-06-22T00:32:56;10.27;;;9.37;;
3712;SDS011;1872;51.406;6.856;2023-06-22T00:35:21;11.03;;;10.03;;
3712;SDS011;1872;51.406;6.856;2023-06-22T00:37:47;10.07;;;9.07;;
3712;SDS011;1872;51.406;6.856;2023-06-22T00:40:13;12.30;;;10.00;;
3712;SDS011;1872;51.406;6.856;2023-06-22T00:42:39;12.23;;;9.50;;
3712;SDS011;1872;51.406;6.856;2023-06-22T00:45:06;11.17;;;10.07;;
3712;SDS011;1872;51.406;6.856;2023-06-22T00:47:33;12.30;;;9.70;;
3712;SDS011;1872;51.406;6.856;2023-06-22T00:50:00;11.00;;;9.87;;
3712;SDS011;1872;51.406;6.856;2023-06-22T00:52:28;11.33;;;10.17;;
3712;SDS011;1872;51.406;6.856;2023-06-22T00:54:59;12.67;;;10.17;;
3712;SDS011;1872;51.406;6.856;2023-06-22T00:57:26;12.90;;;10.67;;
3712;SDS011;1872;51.406;6.856;2023-06-22T00:59:53;10.83;;;9.83;;
3712;SDS011;1872;51.406;6.856;2023-06-22T01:02:19;12.60;;;10.87;;
3712;SDS011;1872;51.406;6.856;2023-06-22T01:04:45;11.17;;;10.13;;
3712;SDS011;1872;51.406;6.856;2023-06-22T01:07:13;12.00;;;10.87;;
3712;SDS011;1872;51.406;6.856;2023-06-22T01:13:06;14.80;;;12.77;;
3712;SDS011;1872;51.406;6.856;2023-06-22T01:16:00;14.50;;;12.67;;
3712;SDS011;1872;51.406;6.856;2023-06-22T01:18:35;14.37;;;12.90;;
3712;SDS011;1872;51.406;6.856;2023-06-22T01:21:04;12.20;;;11.10;;
3712;SDS011;1872;51.406;6.856;2023-06-22T01:26:39;13.03;;;10.67;;
3712;SDS011;1872;51.406;6.856;2023-06-22T01:29:14;12.13;;;10.93;;
3712;SDS011;1872;51.406;6.856;2023-06-22T01:31:41;11.80;;;10.70;;
3712;SDS011;1872;51.406;6.856;2023-06-22T01:34:08;12.20;;;11.10;;
3712;SDS011;1872;51.406;6.856;2023-06-22T01:36:37;12.47;;;10.90;;
3712;SDS011;1872;51.406;6.856;2023-06-22T01:39:04;12.00;;;10.87;;
3712;SDS011;1872;51.406;6.856;2023-06-22T01:41:33;13.20;;;11.87;;
3712;SDS011;1872;51.406;6.856;2023-06-22T01:44:01;13.23;;;12.00;;
3712;SDS011;1872;51.406;6.856;2023-06-22T01:46:30;14.23;;;12.43;;
3712;SDS011;1872;51.406;6.856;2023-06-22T01:48:56;12.73;;;11.53;;
3712;SDS011;1872;51.406;6.856;2023-06-22T01:51:22;13.47;;;12.07;;
3712;SDS011;1872;51.406;6.856;2023-06-22T01:53:49;12.20;;;11.10;;
3712;SDS011;1872;51.406;6.856;2023-06-22T01:56:17;14.10;;;12.73;;
3712;SDS011;1872;51.406;6.856;2023-06-22T02:02:09;14.10;;;12.60;;
3712;SDS011;1872;51.406;6.856;2023-06-22T02:04:55;14.70;;;13.17;;
3712;SDS011;1872;51.406;6.856;2023-06-22T02:07:23;12.63;;;11.10;;
3712;SDS011;1872;51.406;6.856;2023-06-22T02:09:54;13.57;;;11.30;;
3712;SDS011;1872;51.406;6.856;2023-06-22T02:12:23;13.53;;;11.93;;
3712;SDS011;1872;51.406;6.856;2023-06-22T02:14:52;15.00;;;11.83;;
3712;SDS011;1872;51.406;6.856;2023-06-22T02:17:18;13.50;;;12.20;;
3712;SDS011;1872;51.406;6.856;2023-06-22T02:19:44;13.47;;;12.30;;
3712;SDS011;1872;51.406;6.856;2023-06-22T02:22:10;12.97;;;11.57;;
3712;SDS011;1872;51.406;6.856;2023-06-22T02:24:38;12.90;;;11.60;;
3712;SDS011;1872;51.406;6.856;2023-06-22T02:27:04;12.90;;;11.53;;
3712;SDS011;1872;51.406;6.856;2023-06-22T02:29:32;12.70;;;11.50;;
3712;SDS011;1872;51.406;6.856;2023-06-22T02:31:57;12.13;;;10.83;;
3712;SDS011;1872;51.406;6.856;2023-06-22T02:34:23;12.73;;;11.53;;
3712;SDS011;1872;51.406;6.856;2023-06-22T02:36:49;13.23;;;11.93;;
3712;SDS011;1872;51.406;6.856;2023-06-22T02:39:22;13.67;;;12.30;;
3712;SDS011;1872;51.406;6.856;2023-06-22T02:41:52;12.73;;;11.43;;
3712;SDS011;1872;51.406;6.856;2023-06-22T02:44:19;13.70;;;12.47;;
3712;SDS011;1872;51.406;6.856;2023-06-22T02:46:45;14.10;;;11.93;;
3712;SDS011;1872;51.406;6.856;2023-06-22T02:49:12;14.90;;;13.40;;
3712;SDS011;1872;51.406;6.856;2023-06-22T02:51:38;13.73;;;12.00;;
3712;SDS011;1872;51.406;6.856;2023-06-22T02:54:06;14.30;;;12.87;;
3712;SDS011;1872;51.406;6.856;2023-06-22T02:56:32;14.33;;;12.87;;
3712;SDS011;1872;51.406;6.856;2023-06-22T02:58:58;15.13;;;13.73;;
3712;SDS011;1872;51.406;6.856;2023-06-22T03:01:29;15.87;;;14.27;;
3712;SDS011;1872;51.406;6.856;2023-06-22T03:04:04;14.27;;;12.77;;
3712;SDS011;1872;51.406;6.856;2023-06-22T03:06:31;15.33;;;13.77;;
3712;SDS011;1872;51.406;6.856;2023-06-22T03:09:00;16.57;;;14.90;;
3712;SDS011;1872;51.406;6.856;2023-06-22T03:11:30;15.77;;;14.03;;
3712;SDS011;1872;51.406;6.856;2023-06-22T03:13:56;17.30;;;15.70;;
3712;SDS011;1872;51.406;6.856;2023-06-22T03:16:22;15.97;;;14.27;;
3712;SDS011;1872;51.406;6.856;2023-06-22T03:18:47;16.57;;;14.87;;
3712;SDS011;1872;51.406;6.856;2023-06-22T03:21:13;16.07;;;14.37;;
3712;SDS011;1872;51.406;6.856;2023-06-22T03:23:40;16.50;;;14.77;;
3712;SDS011;1872;51.406;6.856;2023-06-22T03:26:06;17.80;;;15.60;;
3712;SDS011;1872;51.406;6.856;2023-06-22T03:28:37;17.00;;;15.30;;
3712;SDS011;1872;51.406;6.856;2023-06-22T03:31:03;17.27;;;15.57;;
3712;SDS011;1872;51.406;6.856;2023-06-22T03:33:32;16.57;;;14.77;;
3712;SDS011;1872;51.406;6.856;2023-06-22T03:35:58;15.93;;;14.23;;
3712;SDS011;1872;51.406;6.856;2023-06-22T03:38:24;16.43;;;14.73;;
3712;SDS011;1872;51.406;6.856;2023-06-22T03:40:49;16.00;;;14.20;;
3712;SDS011;1872;51.406;6.856;2023-06-22T03:43:15;16.30;;;14.07;;
3712;SDS011;1872;51.406;6.856;2023-06-22T03:45:41;19.50;;;17.40;;
3712;SDS011;1872;51.406;6.856;2023-06-22T03:48:07;16.87;;;15.07;;
3712;SDS011;1872;51.406;6.856;2023-06-22T03:50:35;17.90;;;16.10;;
3712;SDS011;1872;51.406;6.856;2023-06-22T03:53:00;17.60;;;15.80;;
3712;SDS011;1872;51.406;6.856;2023-06-22T03:55:26;20.90;;;16.20;;
3712;SDS011;1872;51.406;6.856;2023-06-22T03:57:53;18.50;;;16.60;;
3712;SDS011;1872;51.406;6.856;2023-06-22T04:00:22;19.93;;;17.93;;
3712;SDS011;1872;51.406;6.856;2023-06-22T04:02:48;16.87;;;14.87;;
3712;SDS011;1872;51.406;6.856;2023-06-22T04:05:14;18.03;;;16.10;;
3712;SDS011;1872;51.406;6.856;2023-06-22T04:07:42;19.43;;;17.50;;
3712;SDS011;1872;51.406;6.856;2023-06-22T04:10:08;18.10;;;16.33;;
3712;SDS011;1872;51.406;6.856;2023-06-22T04:12:34;19.60;;;17.57;;
3712;SDS011;1872;51.406;6.856;2023-06-22T04:14:59;18.27;;;16.47;;
3712;SDS011;1872;51.406;6.856;2023-06-22T04:17:25;20.67;;;18.53;;
3712;SDS011;1872;51.406;6.856;2023-06-22T04:19:51;19.83;;;17.73;;
3712;SDS011;1872;51.406;6.856;2023-06-22T04:22:16;21.00;;;17.93;;
3712;SDS011;1872;51.406;6.856;2023-06-22T04:24:42;23.27;;;19.43;;
3712;SDS011;1872;51.406;6.856;2023-06-22T04:27:08;19.20;;;17.20;;
3712;SDS011;1872;51.406;6.856;2023-06-22T04:29:37;24.90;;;20.00;;
3712;SDS011;1872;51.406;6.856;2023-06-22T04:32:13;21.50;;;18.60;;
3712;SDS011;1872;51.406;6.856;2023-06-22T04:34:42;20.53;;;18.13;;
3712;SDS011;1872;51.406;6.856;2023-06-22T04:37:07;21.90;;;18.60;;
3712;SDS011;1872;51.406;6.856;2023-06-22T04:39:33;21.03;;;18.67;;
3712;SDS011;1872;51.406;6.856;2023-06-22T04:41:59;22.47;;;20.10;;
3712;SDS011;1872;51.406;6.856;2023-06-22T04:44:25;20.93;;;18.00;;
3712;SDS011;1872;51.406;6.856;2023-06-22T04:46:56;22.03;;;19.47;;
3712;SDS011;1872;51.406;6.856;2023-06-22T04:49:28;20.60;;;18.53;;
3712;SDS011;1872;51.406;6.856;2023-06-22T04:52:08;22.50;;;18.83;;
3712;SDS011;1872;51.406;6.856;2023-06-22T04:54:35;20.93;;;18.77;;
3712;SDS011;1872;51.406;6.856;2023-06-22T04:57:03;23.73;;;19.40;;
3712;SDS011;1872;51.406;6.856;2023-06-22T04:59:35;20.53;;;18.30;;
3712;SDS011;1872;51.406;6.856;2023-06-22T05:02:04;23.83;;;18.27;;
3712;SDS011;1872;51.406;6.856;2023-06-22T05:04:31;22.00;;;19.70;;
3712;SDS011;1872;51.406;6.856;2023-06-22T05:06:57;25.03;;;20.57;;
3712;SDS011;1872;51.406;6.856;2023-06-22T05:09:23;22.40;;;20.00;;
3712;SDS011;1872;51.406;6.856;2023-06-22T05:11:50;24.03;;;18.23;;
3712;SDS011;1872;51.406;6.856;2023-06-22T05:14:16;20.37;;;18.17;;
3712;SDS011;1872;51.406;6.856;2023-06-22T05:16:46;22.87;;;19.00;;
3712;SDS011;1872;51.406;6.856;2023-06-22T05:19:12;20.60;;;18.07;;
3712;SDS011;1872;51.406;6.856;2023-06-22T05:21:40;20.77;;;18.20;;
3712;SDS011;1872;51.406;6.856;2023-06-22T05:24:06;21.47;;;19.10;;
3712;SDS011;1872;51.406;6.856;2023-06-22T05:26:32;19.00;;;17.00;;
3712;SDS011;1872;51.406;6.856;2023-06-22T05:29:00;20.37;;;18.20;;
3712;SDS011;1872;51.406;6.856;2023-06-22T05:31:27;19.30;;;17.30;;
3712;SDS011;1872;51.406;6.856;2023-06-22T05:33:53;22.27;;;19.67;;
3712;SDS011;1872;51.406;6.856;2023-06-22T05:36:20;20.40;;;18.20;;
3712;SDS011;1872;51.406;6.856;2023-06-22T05:38:47;22.83;;;19.70;;
3712;SDS011;1872;51.406;6.856;2023-06-22T05:41:13;22.60;;;20.27;;
3712;SDS011;1872;51.406;6.856;2023-06-22T05:43:39;22.53;;;19.03;;
3712;SDS011;1872;51.406;6.856;2023-06-22T05:46:05;22.97;;;20.47;;
3712;SDS011;1872;51.406;6.856;2023-06-22T05:48:31;22.07;;;19.33;;
3712;SDS011;1872;51.406;6.856;2023-06-22T05:51:00;22.20;;;19.80;;
3712;SDS011;1872;51.406;6.856;2023-06-22T05:53:26;22.77;;;20.47;;
3712;SDS011;1872;51.406;6.856;2023-06-22T05:55:52;24.23;;;21.27;;
3712;SDS011;1872;51.406;6.856;2023-06-22T05:58:18;26.93;;;22.00;;
3712;SDS011;1872;51.406;6.856;2023-06-22T06:00:44;27.47;;;23.50;;
3712;SDS011;1872;51.406;6.856;2023-06-22T06:03:10;24.27;;;21.67;;
3712;SDS011;1872;51.406;6.856;2023-06-22T06:05:36;28.40;;;24.27;;
3712;SDS011;1872;51.406;6.856;2023-06-22T06:08:03;26.87;;;22.80;;
3712;SDS011;1872;51.406;6.856;2023-06-22T06:10:30;26.87;;;23.67;;
3712;SDS011;1872;51.406;6.856;2023-06-22T06:12:57;29.87;;;24.63;;
3712;SDS011;1872;51.406;6.856;2023-06-22T06:15:22;30.03;;;26.10;;
3712;SDS011;1872;51.406;6.856;2023-06-22T06:17:49;32.07;;;28.60;;
3712;SDS011;1872;51.406;6.856;2023-06-22T06:22:48;34.20;;;29.77;;
3712;SDS011;1872;51.406;6.856;2023-06-22T06:25:14;32.77;;;29.17;;
3712;SDS011;1872;51.406;6.856;2023-06-22T06:27:50;38.57;;;29.83;;
3712;SDS011;1872;51.406;6.856;2023-06-22T06:30:24;34.10;;;30.10;;
3712;SDS011;1872;51.406;6.856;2023-06-22T06:32:51;38.50;;;30.53;;
3712;SDS011;1872;51.406;6.856;2023-06-22T06:35:21;38.27;;;31.50;;
3712;SDS011;1872;51.406;6.856;2023-06-22T06:37:52;38.40;;;32.47;;
3712;SDS011;1872;51.406;6.856;2023-06-22T06:40:18;38.20;;;31.60;;
3712;SDS011;1872;51.406;6.856;2023-06-22T06:42:48;33.70;;;28.07;;
3712;SDS011;1872;51.406;6.856;2023-06-22T06:45:18;34.23;;;28.50;;
3712;SDS011;1872;51.406;6.856;2023-06-22T06:47:48;35.43;;;29.67;;
3712;SDS011;1872;51.406;6.856;2023-06-22T06:50:18;34.37;;;30.07;;
3712;SDS011;1872;51.406;6.856;2023-06-22T06:52:44;36.27;;;31.57;;
3712;SDS011;1872;51.406;6.856;2023-06-22T06:55:15;36.70;;;29.27;;
3712;SDS011;1872;51.406;6.856;2023-06-22T06:57:41;34.90;;;29.80;;
3712;SDS011;1872;51.406;6.856;2023-06-22T07:00:08;37.33;;;29.30;;
3712;SDS011;1872;51.406;6.856;2023-06-22T07:02:39;31.90;;;28.40;;
3712;SDS011;1872;51.406;6.856;2023-06-22T07:05:06;35.30;;;29.00;;
3712;SDS011;1872;51.406;6.856;2023-06-22T07:07:34;31.10;;;27.77;;
3712;SDS011;1872;51.406;6.856;2023-06-22T07:10:01;36.67;;;29.40;;
3712;SDS011;1872;51.406;6.856;2023-06-22T07:12:29;35.37;;;29.53;;
3712;SDS011;1872;51.406;6.856;2023-06-22T07:15:00;32.90;;;29.07;;
3712;SDS011;1872;51.406;6.856;2023-06-22T07:17:30;33.47;;;29.00;;
3712;SDS011;1872;51.406;6.856;2023-06-22T07:19:56;35.17;;;28.93;;
3712;SDS011;1872;51.406;6.856;2023-06-22T07:22:23;37.50;;;30.83;;
3712;SDS011;1872;51.406;6.856;2023-06-22T07:24:51;33.93;;;30.27;;
3712;SDS011;1872;51.406;6.856;2023-06-22T07:27:17;30.83;;;27.33;;
3712;SDS011;1872;51.406;6.856;2023-06-22T07:29:46;33.20;;;27.40;;
3712;SDS011;1872;51.406;6.856;2023-06-22T07:32:15;33.07;;;28.23;;
3712;SDS011;1872;51.406;6.856;2023-06-22T07:34:41;32.00;;;28.30;;
3712;SDS011;1872;51.406;6.856;2023-06-22T07:37:07;31.83;;;28.40;;
3712;SDS011;1872;51.406;6.856;2023-06-22T07:39:34;31.83;;;28.43;;
3712;SDS011;1872;51.406;6.856;2023-06-22T07:42:02;31.50;;;28.20;;
3712;SDS011;1872;51.406;6.856;2023-06-22T07:44:28;34.00;;;29.73;;
3712;SDS011;1872;51.406;6.856;2023-06-22T07:46:54;33.70;;;30.00;;
3712;SDS011;1872;51.406;6.856;2023-06-22T07:49:20;34.60;;;30.03;;
3712;SDS011;1872;51.406;6.856;2023-06-22T07:51:46;37.23;;;30.80;;
3712;SDS011;1872;51.406;6.856;2023-06-22T07:54:14;37.57;;;30.67;;
3712;SDS011;1872;51.406;6.856;2023-06-22T07:56:43;34.10;;;28.70;;
3712;SDS011;1872;51.406;6.856;2023-06-22T07:59:14;35.53;;;29.90;;
3712;SDS011;1872;51.406;6.856;2023-06-22T08:01:40;33.63;;;29.40;;
3712;SDS011;1872;51.406;6.856;2023-06-22T08:04:06;36.07;;;31.30;;
3712;SDS011;1872;51.406;6.856;2023-06-22T08:06:39;35.90;;;29.93;;
3712;SDS011;1872;51.406;6.856;2023-06-22T08:09:08;36.67;;;32.67;;
3712;SDS011;1872;51.406;6.856;2023-06-22T08:11:34;33.43;;;29.80;;
3712;SDS011;1872;51.406;6.856;2023-06-22T08:14:00;36.40;;;30.57;;
3712;SDS011;1872;51.406;6.856;2023-06-22T08:16:26;38.13;;;30.70;;
3712;SDS011;1872;51.406;6.856;2023-06-22T08:18:52;33.07;;;28.73;;
3712;SDS011;1872;51.406;6.856;2023-06-22T08:21:22;39.40;;;32.20;;
3712;SDS011;1872;51.406;6.856;2023-06-22T08:23:49;36.73;;;31.83;;
3712;SDS011;1872;51.406;6.856;2023-06-22T08:26:14;36.17;;;30.30;;
3712;SDS011;1872;51.406;6.856;2023-06-22T08:28:40;34.80;;;30.57;;
3712;SDS011;1872;51.406;6.856;2023-06-22T08:31:06;36.73;;;32.47;;
3712;SDS011;1872;51.406;6.856;2023-06-22T08:33:32;35.73;;;30.73;;
3712;SDS011;1872;51.406;6.856;2023-06-22T08:35:58;37.70;;;31.57;;
3712;SDS011;1872;51.406;6.856;2023-06-22T08:38:25;37.23;;;30.70;;
3712;SDS011;1872;51.406;6.856;2023-06-22T08:40:51;36.27;;;30.67;;
3712;SDS011;1872;51.406;6.856;2023-06-22T08:43:17;35.87;;;31.40;;
3712;SDS011;1872;51.406;6.856;2023-06-22T08:45:45;35.37;;;31.00;;
3712;SDS011;1872;51.406;6.856;2023-06-22T08:48:11;39.10;;;30.80;;
3712;SDS011;1872;51.406;6.856;2023-06-22T08:50:39;34.13;;;29.37;;
3712;SDS011;1872;51.406;6.856;2023-06-22T08:53:08;33.83;;;30.13;;
3712;SDS011;1872;51.406;6.856;2023-06-22T08:55:34;37.47;;;30.90;;
3712;SDS011;1872;51.406;6.856;2023-06-22T08:58:00;36.43;;;29.30;;
3712;SDS011;1872;51.406;6.856;2023-06-22T09:00:28;39.03;;;32.50;;
3712;SDS011;1872;51.406;6.856;2023-06-22T09:02:57;36.50;;;31.60;;
3712;SDS011;1872;51.406;6.856;2023-06-22T09:05:27;34.27;;;30.50;;
3712;SDS011;1872;51.406;6.856;2023-06-22T09:07:55;35.63;;;30.13;;
3712;SDS011;1872;51.406;6.856;2023-06-22T09:10:24;33.03;;;27.83;;
3712;SDS011;1872;51.406;6.856;2023-06-22T09:12:50;32.00;;;28.00;;
3712;SDS011;1872;51.406;6.856;2023-06-22T09:15:16;30.07;;;25.90;;
3712;SDS011;1872;51.406;6.856;2023-06-22T09:17:42;33.23;;;28.07;;
3712;SDS011;1872;51.406;6.856;2023-06-22T09:20:08;30.20;;;27.00;;
3712;SDS011;1872;51.406;6.856;2023-06-22T09:22:36;30.17;;;27.07;;
3712;SDS011;1872;51.406;6.856;2023-06-22T09:25:03;27.17;;;24.30;;
3712;SDS011;1872;51.406;6.856;2023-06-22T09:27:29;27.70;;;24.77;;
3712;SDS011;1872;51.406;6.856;2023-06-22T09:29:56;26.80;;;24.00;;
3712;SDS011;1872;51.406;6.856;2023-06-22T09:32:37;27.23;;;24.33;;
3712;SDS011;1872;51.406;6.856;2023-06-22T09:35:08;25.83;;;23.23;;
3712;SDS011;1872;51.406;6.856;2023-06-22T09:37:34;25.57;;;22.93;;
3712;SDS011;1872;51.406;6.856;2023-06-22T09:40:01;25.53;;;22.83;;
3712;SDS011;1872;51.406;6.856;2023-06-22T09:42:33;21.30;;;19.10;;
3712;SDS011;1872;51.406;6.856;2023-06-22T09:44:59;24.13;;;21.50;;
3712;SDS011;1872;51.406;6.856;2023-06-22T09:47:27;21.17;;;19.03;;
3712;SDS011;1872;51.406;6.856;2023-06-22T09:49:54;22.20;;;19.77;;
3712;SDS011;1872;51.406;6.856;2023-06-22T09:52:21;20.90;;;18.57;;
3712;SDS011;1872;51.406;6.856;2023-06-22T09:54:47;21.87;;;19.60;;
3712;SDS011;1872;51.406;6.856;2023-06-22T09:57:13;23.10;;;20.70;;
3712;SDS011;1872;51.406;6.856;2023-06-22T09:59:39;20.73;;;18.63;;
3712;SDS011;1872;51.406;6.856;2023-06-22T10:02:07;21.83;;;19.53;;
3712;SDS011;1872;51.406;6.856;2023-06-22T10:04:44;18.93;;;15.47;;
3712;SDS011;1872;51.406;6.856;2023-06-22T10:07:09;21.43;;;19.13;;
3712;SDS011;1872;51.406;6.856;2023-06-22T10:09:35;21.07;;;16.63;;
3712;SDS011;1872;51.406;6.856;2023-06-22T10:12:01;23.33;;;20.80;;
3712;SDS011;1872;51.406;6.856;2023-06-22T10:14:27;21.53;;;19.23;;
3712;SDS011;1872;51.406;6.856;2023-06-22T10:16:54;20.50;;;18.43;;
3712;SDS011;1872;51.406;6.856;2023-06-22T10:19:21;21.47;;;19.37;;
3712;SDS011;1872;51.406;6.856;2023-06-22T10:21:47;20.67;;;18.60;;
3712;SDS011;1872;51.406;6.856;2023-06-22T10:24:13;23.10;;;19.53;;
3712;SDS011;1872;51.406;6.856;2023-06-22T10:26:38;22.97;;;20.77;;
3712;SDS011;1872;51.406;6.856;2023-06-22T10:29:04;23.17;;;20.50;;
3712;SDS011;1872;51.406;6.856;2023-06-22T10:31:33;21.10;;;18.73;;
3712;SDS011;1872;51.406;6.856;2023-06-22T10:34:01;22.07;;;19.77;;
3712;SDS011;1872;51.406;6.856;2023-06-22T10:36:33;22.67;;;18.63;;
3712;SDS011;1872;51.406;6.856;2023-06-22T10:39:01;22.80;;;19.60;;
3712;SDS011;1872;51.406;6.856;2023-06-22T10:41:31;21.30;;;19.10;;
3712;SDS011;1872;51.406;6.856;2023-06-22T10:43:56;20.67;;;18.53;;
3712;SDS011;1872;51.406;6.856;2023-06-22T10:46:31;22.43;;;20.03;;
3712;SDS011;1872;51.406;6.856;2023-06-22T10:48:57;22.93;;;19.43;;
3712;SDS011;1872;51.406;6.856;2023-06-22T10:51:27;24.07;;;19.90;;
3712;SDS011;1872;51.406;6.856;2023-06-22T10:53:57;21.43;;;19.10;;
3712;SDS011;1872;51.406;6.856;2023-06-22T10:56:33;20.35;;;18.25;;
3712;SDS011;1872;51.406;6.856;2023-06-22T10:58:59;23.37;;;20.80;;
3712;SDS011;1872;51.406;6.856;2023-06-22T11:01:36;24.23;;;21.73;;
3712;SDS011;1872;51.406;6.856;2023-06-22T11:04:02;25.30;;;20.70;;
3712;SDS011;1872;51.406;6.856;2023-06-22T11:06:49;20.80;;;18.60;;
3712;SDS011;1872;51.406;6.856;2023-06-22T11:09:16;23.97;;;20.63;;
3712;SDS011;1872;51.406;6.856;2023-06-22T11:11:45;25.73;;;22.90;;
3712;SDS011;1872;51.406;6.856;2023-06-22T11:14:18;26.43;;;23.60;;
3712;SDS011;1872;51.406;6.856;2023-06-22T11:16:44;27.60;;;23.07;;
3712;SDS011;1872;51.406;6.856;2023-06-22T11:19:11;27.00;;;23.90;;
3712;SDS011;1872;51.406;6.856;2023-06-22T11:21:37;25.90;;;23.17;;
3712;SDS011;1872;51.406;6.856;2023-06-22T11:24:03;27.00;;;23.73;;
3712;SDS011;1872;51.406;6.856;2023-06-22T11:26:29;28.10;;;24.97;;
3712;SDS011;1872;51.406;6.856;2023-06-22T11:28:57;29.00;;;25.90;;
3712;SDS011;1872;51.406;6.856;2023-06-22T11:31:28;31.60;;;27.10;;
3712;SDS011;1872;51.406;6.856;2023-06-22T11:33:59;30.87;;;26.97;;
3712;SDS011;1872;51.406;6.856;2023-06-22T11:36:27;30.87;;;27.50;;
3712;SDS011;1872;51.406;6.856;2023-06-22T11:38:56;32.37;;;28.20;;
3712;SDS011;1872;51.406;6.856;2023-06-22T11:41:22;31.57;;;27.20;;
3712;SDS011;1872;51.406;6.856;2023-06-22T11:43:47;34.13;;;28.80;;
3712;SDS011;1872;51.406;6.856;2023-06-22T11:46:13;34.03;;;29.80;;
3712;SDS011;1872;51.406;6.856;2023-06-22T11:48:40;33.23;;;28.53;;
3712;SDS011;1872;51.406;6.856;2023-06-22T11:51:06;32.33;;;28.47;;
3712;SDS011;1872;51.406;6.856;2023-06-22T11:53:33;33.47;;;29.80;;
3712;SDS011;1872;51.406;6.856;2023-06-22T11:56:00;35.63;;;29.40;;
3712;SDS011;1872;51.406;6.856;2023-06-22T11:58:26;39.33;;;30.73;;
3712;SDS011;1872;51.406;6.856;2023-06-22T12:00:52;41.50;;;33.43;;
3712;SDS011;1872;51.406;6.856;2023-06-22T12:03:20;39.50;;;34.40;;
3712;SDS011;1872;51.406;6.856;2023-06-22T12:05:49;41.13;;;34.67;;
3712;SDS011;1872;51.406;6.856;2023-06-22T12:08:17;38.00;;;31.13;;
3712;SDS011;1872;51.406;6.856;2023-06-22T12:10:43;42.50;;;34.73;;
3712;SDS011;1872;51.406;6.856;2023-06-22T12:13:09;41.90;;;33.60;;
3712;SDS011;1872;51.406;6.856;2023-06-22T12:15:37;45.07;;;34.80;;
3712;SDS011;1872;51.406;6.856;2023-06-22T12:18:03;41.77;;;35.50;;
3712;SDS011;1872;51.406;6.856;2023-06-22T12:20:28;49.17;;;36.70;;
3712;SDS011;1872;51.406;6.856;2023-06-22T12:22:54;48.83;;;38.30;;
3712;SDS011;1872;51.406;6.856;2023-06-22T12:25:21;45.00;;;35.97;;
3712;SDS011;1872;51.406;6.856;2023-06-22T12:27:47;45.87;;;36.47;;
3712;SDS011;1872;51.406;6.856;2023-06-22T12:30:13;52.17;;;38.67;;
3712;SDS011;1872;51.406;6.856;2023-06-22T12:32:39;45.97;;;36.93;;
3712;SDS011;1872;51.406;6.856;2023-06-22T12:35:04;48.00;;;38.27;;
3712;SDS011;1872;51.406;6.856;2023-06-22T12:37:32;55.40;;;41.10;;
3712;SDS011;1872;51.406;6.856;2023-06-22T12:39:58;47.30;;;38.27;;
3712;SDS011;1872;51.406;6.856;2023-06-22T12:42:24;48.57;;;39.60;;
3712;SDS011;1872;51.406;6.856;2023-06-22T12:44:53;47.40;;;40.33;;
3712;SDS011;1872;51.406;6.856;2023-06-22T12:47:18;45.77;;;38.30;;
3712;SDS011;1872;51.406;6.856;2023-06-22T12:49:45;45.10;;;37.97;;
3712;SDS011;1872;51.406;6.856;2023-06-22T12:52:10;47.77;;;39.43;;
3712;SDS011;1872;51.406;6.856;2023-06-22T12:54:38;49.13;;;38.53;;
3712;SDS011;1872;51.406;6.856;2023-06-22T12:57:04;45.10;;;38.27;;
3712;SDS011;1872;51.406;6.856;2023-06-22T12:59:33;50.30;;;40.70;;
3712;SDS011;1872;51.406;6.856;2023-06-22T13:01:59;52.97;;;41.53;;
3712;SDS011;1872;51.406;6.856;2023-06-22T13:04:25;52.80;;;42.27;;
3712;SDS011;1872;51.406;6.856;2023-06-22T13:06:56;54.47;;;41.93;;
3712;SDS011;1872;51.406;6.856;2023-06-22T13:09:21;44.30;;;37.10;;
3712;SDS011;1872;51.406;6.856;2023-06-22T13:11:47;50.03;;;42.13;;
3712;SDS011;1872;51.406;6.856;2023-06-22T13:14:13;54.87;;;42.87;;
3712;SDS011;1872;51.406;6.856;2023-06-22T13:16:39;56.03;;;44.37;;
3712;SDS011;1872;51.406;6.856;2023-06-22T13:19:04;51.80;;;41.13;;
3712;SDS011;1872;51.406;6.856;2023-06-22T13:21:30;61.70;;;46.03;;
3712;SDS011;1872;51.406;6.856;2023-06-22T13:23:59;54.10;;;40.93;;
3712;SDS011;1872;51.406;6.856;2023-06-22T13:26:26;53.63;;;43.33;;
3712;SDS011;1872;51.406;6.856;2023-06-22T13:28:53;52.13;;;43.40;;
3712;SDS011;1872;51.406;6.856;2023-06-22T13:31:24;53.27;;;42.40;;
3712;SDS011;1872;51.406;6.856;2023-06-22T13:33:53;54.87;;;42.63;;
3712;SDS011;1872;51.406;6.856;2023-06-22T13:36:20;49.90;;;40.87;;
3712;SDS011;1872;51.406;6.856;2023-06-22T13:38:48;49.47;;;40.60;;
3712;SDS011;1872;51.406;6.856;2023-06-22T13:41:14;51.17;;;40.83;;
3712;SDS011;1872;51.406;6.856;2023-06-22T13:43:41;45.70;;;38.07;;
3712;SDS011;1872;51.406;6.856;2023-06-22T13:46:06;47.60;;;39.50;;
3712;SDS011;1872;51.406;6.856;2023-06-22T13:48:32;48.47;;;39.37;;
3712;SDS011;1872;51.406;6.856;2023-06-22T13:50:58;47.40;;;38.37;;
3712;SDS011;1872;51.406;6.856;2023-06-22T13:55:55;45.67;;;36.90;;
3712;SDS011;1872;51.406;6.856;2023-06-22T13:58:21;45.47;;;36.50;;
3712;SDS011;1872;51.406;6.856;2023-06-22T14:00:47;43.27;;;36.07;;
3712;SDS011;1872;51.406;6.856;2023-06-22T14:03:17;44.07;;;36.90;;
3712;SDS011;1872;51.406;6.856;2023-06-22T14:05:43;41.73;;;35.37;;
3712;SDS011;1872;51.406;6.856;2023-06-22T14:08:12;46.23;;;37.50;;
3712;SDS011;1872;51.406;6.856;2023-06-22T14:10:38;41.17;;;36.37;;
3712;SDS011;1872;51.406;6.856;2023-06-22T14:13:04;42.77;;;36.20;;
3712;SDS011;1872;51.406;6.856;2023-06-22T14:15:31;45.80;;;37.33;;
3712;SDS011;1872;51.406;6.856;2023-06-22T14:17:57;47.47;;;36.43;;
3712;SDS011;1872;51.406;6.856;2023-06-22T14:20:23;44.47;;;35.97;;
3712;SDS011;1872;51.406;6.856;2023-06-22T14:22:50;44.17;;;34.37;;
3712;SDS011;1872;51.406;6.856;2023-06-22T14:25:24;42.73;;;34.87;;
3712;SDS011;1872;51.406;6.856;2023-06-22T14:27:49;40.53;;;33.20;;
3712;SDS011;1872;51.406;6.856;2023-06-22T14:30:15;48.00;;;38.47;;
3712;SDS011;1872;51.406;6.856;2023-06-22T14:32:42;43.50;;;35.53;;
3712;SDS011;1872;51.406;6.856;2023-06-22T14:35:10;40.57;;;35.80;;
3712;SDS011;1872;51.406;6.856;2023-06-22T14:37:36;41.20;;;35.67;;
3712;SDS011;1872;51.406;6.856;2023-06-22T14:40:08;43.13;;;35.00;;
3712;SDS011;1872;51.406;6.856;2023-06-22T14:42:35;42.27;;;34.77;;
3712;SDS011;1872;51.406;6.856;2023-06-22T14:45:01;39.43;;;32.53;;
3712;SDS011;1872;51.406;6.856;2023-06-22T14:47:27;42.40;;;34.80;;
3712;SDS011;1872;51.406;6.856;2023-06-22T14:49:55;45.30;;;36.40;;
3712;SDS011;1872;51.406;6.856;2023-06-22T14:52:22;40.77;;;34.23;;
3712;SDS011;1872;51.406;6.856;2023-06-22T14:54:47;44.50;;;34.20;;
3712;SDS011;1872;51.406;6.856;2023-06-22T14:57:13;42.20;;;34.80;;
3712;SDS011;1872;51.406;6.856;2023-06-22T14:59:43;38.03;;;32.30;;
3712;SDS011;1872;51.406;6.856;2023-06-22T15:02:08;38.83;;;32.10;;
3712;SDS011;1872;51.406;6.856;2023-06-22T15:04:36;38.00;;;32.17;;